Time,TemperatureF,DewpointF,PressureIn,WindDirection,WindDirectionDegrees,WindSpeedMPH,WindSpeedGustMPH,Humidity,HourlyPrecipIn,Conditions,Clouds,dailyrainin,SoftwareType,DateUTC
2013-04-11 00:02:00,59.3,52.0,29.97,ESE,122,1.0,2.0,77,0.00,,,0.00,weatherlink.com 1.10,2013-04-11 07:02:00,
2013-04-11 00:17:00,59.1,52.0,29.96,SE,137,0.0,3.0,77,0.00,,,0.00,weatherlink.com 1.10,2013-04-11 07:17:00,
2013-04-11 00:32:00,58.8,52.0,29.96,SE,138,0.0,2.0,77,0.00,,,0.00,weatherlink.com 1.10,2013-04-11 07:32:00,
2013-04-11 00:47:00,58.6,52.0,29.96,SSE,159,0.0,2.0,78,0.00,,,0.00,weatherlink.com 1.10,2013-04-11 07:47:00,
2013-04-11 01:02:00,58.2,52.0,29.96,SE,137,0.0,2.0,79,0.00,,,0.00,weatherlink.com 1.10,2013-04-11 08:02:00,
2013-04-11 01:17:00,57.9,52.0,29.96,SE,135,0.0,2.0,80,0.00,,,0.00,weatherlink.com 1.10,2013-04-11 08:17:00,
2013-04-11 01:32:00,57.2,51.0,29.96,SE,135,0.0,0.0,80,0.00,,,0.00,weatherlink.com 1.10,2013-04-11 08:32:00,
2013-04-11 01:47:00,56.6,51.0,29.95,SE,135,0.0,1.0,81,0.00,,,0.00,weatherlink.com 1.10,2013-04-11 08:47:00,
2013-04-11 02:02:00,56.4,51.0,29.95,SE,135,0.0,0.0,81,0.00,,,0.00,weatherlink.com 1.10,2013-04-11 09:02:00,
2013-04-11 02:17:00,56.1,51.0,29.95,SE,135,0.0,0.0,82,0.00,,,0.00,weatherlink.com 1.10,2013-04-11 09:17:00,
2013-04-11 02:32:00,56.0,51.0,29.95,SE,135,0.0,1.0,82,0.00,,,0.00,weatherlink.com 1.10,2013-04-11 09:32:00,
2013-04-11 02:47:00,56.1,51.0,29.94,SE,135,0.0,1.0,82,0.00,,,0.00,weatherlink.com 1.10,2013-04-11 09:47:00,
2013-04-11 03:02:00,56.1,50.0,29.94,SE,135,0.0,0.0,81,0.00,,,0.00,weatherlink.com 1.10,2013-04-11 10:02:00,
2013-04-11 03:17:00,55.9,50.0,29.93,SE,135,0.0,0.0,81,0.00,,,0.00,weatherlink.com 1.10,2013-04-11 10:17:00,
2013-04-11 03:32:00,55.2,49.0,29.92,SE,135,0.0,0.0,80,0.00,,,0.00,weatherlink.com 1.10,2013-04-11 10:32:00,
2013-04-11 03:47:00,55.0,50.0,29.92,SE,135,0.0,0.0,82,0.00,,,0.00,weatherlink.com 1.10,2013-04-11 10:47:00,
2013-04-11 04:02:00,54.8,49.0,29.91,SE,135,0.0,0.0,82,0.00,,,0.00,weatherlink.com 1.10,2013-04-11 11:02:00,
2013-04-11 04:17:00,54.9,50.0,29.91,SE,135,0.0,0.0,82,0.00,,,0.00,weatherlink.com 1.10,2013-04-11 11:17:00,
2013-04-11 04:32:00,55.2,50.0,29.91,SE,135,0.0,0.0,81,0.00,,,0.00,weatherlink.com 1.10,2013-04-11 11:32:00,
2013-04-11 04:47:00,54.8,49.0,29.91,SE,135,0.0,0.0,80,0.00,,,0.00,weatherlink.com 1.10,2013-04-11 11:47:00,
2013-04-11 05:03:00,54.0,48.0,29.91,SE,135,0.0,0.0,79,0.00,,,0.00,weatherlink.com 1.10,2013-04-11 12:03:00,
2013-04-11 05:18:00,53.8,48.0,29.91,SE,135,0.0,1.0,80,0.00,,,0.00,weatherlink.com 1.10,2013-04-11 12:18:00,
2013-04-11 05:33:00,53.2,47.0,29.91,SE,135,0.0,0.0,80,0.00,,,0.00,weatherlink.com 1.10,2013-04-11 12:33:00,
2013-04-11 05:48:00,52.8,47.0,29.90,SE,135,0.0,0.0,82,0.00,,,0.00,weatherlink.com 1.10,2013-04-11 12:48:00,
2013-04-11 06:03:00,52.6,47.0,29.90,SE,135,0.0,0.0,82,0.00,,,0.00,weatherlink.com 1.10,2013-04-11 13:03:00,
2013-04-11 06:18:00,52.3,47.0,29.90,SE,135,0.0,0.0,82,0.00,,,0.00,weatherlink.com 1.10,2013-04-11 13:18:00,
2013-04-11 06:33:00,51.9,47.0,29.91,SE,135,0.0,0.0,82,0.00,,,0.00,weatherlink.com 1.10,2013-04-11 13:33:00,
2013-04-11 06:48:00,52.4,47.0,29.91,SE,135,0.0,0.0,83,0.00,,,0.00,weatherlink.com 1.10,2013-04-11 13:48:00,
2013-04-11 07:03:00,54.2,50.0,29.91,SE,135,0.0,0.0,84,0.00,,,0.00,weatherlink.com 1.10,2013-04-11 14:03:00,
2013-04-11 07:18:00,58.3,50.0,29.90,SE,135,0.0,0.0,75,0.00,,,0.00,weatherlink.com 1.10,2013-04-11 14:18:00,
2013-04-11 07:33:00,58.4,47.0,29.91,SE,135,0.0,0.0,67,0.00,,,0.00,weatherlink.com 1.10,2013-04-11 14:33:00,
2013-04-11 07:48:00,59.9,47.0,29.92,WNW,299,1.0,2.0,63,0.00,,,0.00,weatherlink.com 1.10,2013-04-11 14:48:00,
2013-04-11 08:03:00,62.0,46.0,29.92,SSW,213,0.0,2.0,57,0.00,,,0.00,weatherlink.com 1.10,2013-04-11 15:03:00,
2013-04-11 08:18:00,63.0,46.0,29.91,SSE,152,3.0,4.0,55,0.00,,,0.00,weatherlink.com 1.10,2013-04-11 15:18:00,
2013-04-11 08:33:00,63.5,48.0,29.91,SSE,159,1.0,5.0,57,0.00,,,0.00,weatherlink.com 1.10,2013-04-11 15:33:00,
2013-04-11 08:48:00,64.1,49.0,29.91,ESE,114,2.0,4.0,59,0.00,,,0.00,weatherlink.com 1.10,2013-04-11 15:48:00,
2013-04-11 09:18:00,66.9,48.0,29.91,East,96,3.0,4.0,51,0.00,,,0.00,weatherlink.com 1.10,2013-04-11 16:18:00,
2013-04-11 09:33:00,67.7,47.0,29.91,SW,231,0.0,4.0,48,0.00,,,0.00,weatherlink.com 1.10,2013-04-11 16:33:00,
2013-04-11 09:48:00,68.8,46.0,29.90,SE,125,3.0,5.0,45,0.00,,,0.00,weatherlink.com 1.10,2013-04-11 16:48:00,
2013-04-11 10:03:00,69.4,46.0,29.90,SSW,200,0.0,6.0,44,0.00,,,0.00,weatherlink.com 1.10,2013-04-11 17:03:00,
2013-04-11 10:18:00,70.2,46.0,29.89,ENE,75,2.0,4.0,42,0.00,,,0.00,weatherlink.com 1.10,2013-04-11 17:18:00,
2013-04-11 10:33:00,71.7,49.0,29.90,WSW,240,4.0,7.0,44,0.00,,,0.00,weatherlink.com 1.10,2013-04-11 17:33:00,
2013-04-11 10:48:00,72.2,50.0,29.89,South,176,4.0,8.0,46,0.00,,,0.00,weatherlink.com 1.10,2013-04-11 17:48:00,
2013-04-11 11:03:00,71.7,49.0,29.88,SSE,168,5.0,8.0,44,0.00,,,0.00,weatherlink.com 1.10,2013-04-11 18:03:00,
2013-04-11 11:18:00,72.0,49.0,29.88,South,186,2.0,9.0,45,0.00,,,0.00,weatherlink.com 1.10,2013-04-11 18:18:00,
2013-04-11 11:33:00,72.0,50.0,29.88,South,184,3.0,12.0,46,0.00,,,0.00,weatherlink.com 1.10,2013-04-11 18:33:00,
2013-04-11 11:48:00,69.9,53.0,29.87,WSW,241,11.0,12.0,55,0.00,,,0.00,weatherlink.com 1.10,2013-04-11 18:48:00,
2013-04-11 12:03:00,69.6,53.0,29.87,SW,233,2.0,13.0,55,0.00,,,0.00,weatherlink.com 1.10,2013-04-11 19:03:00,
2013-04-11 12:18:00,69.2,53.0,29.87,SSE,153,8.0,12.0,56,0.00,,,0.00,weatherlink.com 1.10,2013-04-11 19:18:00,
2013-04-11 12:34:00,69.6,53.0,29.86,SW,224,4.0,14.0,56,0.00,,,0.00,weatherlink.com 1.10,2013-04-11 19:34:00,
2013-04-11 12:49:00,69.8,53.0,29.85,SW,235,7.0,12.0,56,0.00,,,0.00,weatherlink.com 1.10,2013-04-11 19:49:00,
2013-04-11 13:04:00,68.3,54.0,29.85,SW,229,6.0,14.0,61,0.00,,,0.00,weatherlink.com 1.10,2013-04-11 20:04:00,
2013-04-11 13:19:00,68.9,54.0,29.85,SSW,203,5.0,9.0,60,0.00,,,0.00,weatherlink.com 1.10,2013-04-11 20:19:00,
2013-04-11 13:34:00,68.7,54.0,29.84,SW,233,4.0,10.0,59,0.00,,,0.00,weatherlink.com 1.10,2013-04-11 20:34:00,
2013-04-11 13:49:00,68.9,53.0,29.83,SSW,203,6.0,12.0,58,0.00,,,0.00,weatherlink.com 1.10,2013-04-11 20:49:00,
2013-04-11 14:04:00,68.5,53.0,29.82,SE,143,4.0,12.0,59,0.00,,,0.00,weatherlink.com 1.10,2013-04-11 21:04:00,
2013-04-11 14:19:00,68.0,54.0,29.82,WSW,253,5.0,10.0,61,0.00,,,0.00,weatherlink.com 1.10,2013-04-11 21:19:00,
2013-04-11 14:34:00,67.5,54.0,29.81,SSW,210,3.0,10.0,62,0.00,,,0.00,weatherlink.com 1.10,2013-04-11 21:34:00,
2013-04-11 14:49:00,67.3,54.0,29.81,SW,228,6.0,11.0,63,0.00,,,0.00,weatherlink.com 1.10,2013-04-11 21:49:00,
2013-04-11 15:04:00,67.5,55.0,29.80,SW,228,11.0,11.0,65,0.00,,,0.00,weatherlink.com 1.10,2013-04-11 22:04:00,
2013-04-11 15:19:00,67.4,55.0,29.79,ESE,119,2.0,11.0,64,0.00,,,0.00,weatherlink.com 1.10,2013-04-11 22:19:00,
2013-04-11 15:34:00,67.9,56.0,29.79,WSW,238,1.0,8.0,65,0.00,,,0.00,weatherlink.com 1.10,2013-04-11 22:34:00,
2013-04-11 15:49:00,67.2,55.0,29.79,West,268,1.0,7.0,66,0.00,,,0.00,weatherlink.com 1.10,2013-04-11 22:49:00,
2013-04-11 16:04:00,67.7,55.0,29.79,SSE,160,6.0,8.0,64,0.00,,,0.00,weatherlink.com 1.10,2013-04-11 23:04:00,
2013-04-11 16:19:00,66.9,55.0,29.78,SSW,197,2.0,8.0,65,0.00,,,0.00,weatherlink.com 1.10,2013-04-11 23:19:00,
2013-04-11 16:34:00,67.1,54.0,29.78,ESE,102,1.0,10.0,64,0.00,,,0.00,weatherlink.com 1.10,2013-04-11 23:34:00,
2013-04-11 16:49:00,66.2,54.0,29.77,SE,141,8.0,11.0,65,0.00,,,0.00,weatherlink.com 1.10,2013-04-11 23:49:00,
2013-04-11 17:04:00,65.9,54.0,29.77,ESE,122,4.0,8.0,66,0.00,,,0.00,weatherlink.com 1.10,2013-04-12 00:04:00,
2013-04-11 17:19:00,65.3,54.0,29.77,SSE,155,4.0,9.0,67,0.00,,,0.00,weatherlink.com 1.10,2013-04-12 00:19:00,
2013-04-11 17:34:00,64.6,54.0,29.76,SSE,159,4.0,9.0,69,0.00,,,0.00,weatherlink.com 1.10,2013-04-12 00:34:00,
2013-04-11 17:49:00,65.0,55.0,29.76,ESE,122,4.0,8.0,69,0.00,,,0.00,weatherlink.com 1.10,2013-04-12 00:49:00,
2013-04-11 18:04:00,64.5,54.0,29.76,SSW,200,3.0,7.0,69,0.00,,,0.00,weatherlink.com 1.10,2013-04-12 01:04:00,
2013-04-11 18:19:00,63.3,54.0,29.76,SSE,155,2.0,7.0,71,0.00,,,0.00,weatherlink.com 1.10,2013-04-12 01:19:00,
2013-04-11 18:34:00,62.7,54.0,29.76,SSW,208,2.0,8.0,72,0.00,,,0.00,weatherlink.com 1.10,2013-04-12 01:34:00,
2013-04-11 18:49:00,62.4,54.0,29.76,ESE,115,3.0,6.0,73,0.00,,,0.00,weatherlink.com 1.10,2013-04-12 01:49:00,
2013-04-11 19:04:00,61.2,53.0,29.76,SSE,150,1.0,5.0,75,0.00,,,0.00,weatherlink.com 1.10,2013-04-12 02:04:00,
2013-04-11 19:19:00,60.5,53.0,29.77,South,175,2.0,5.0,77,0.00,,,0.00,weatherlink.com 1.10,2013-04-12 02:19:00,
2013-04-11 19:34:00,59.9,53.0,29.76,SW,217,2.0,5.0,78,0.00,,,0.00,weatherlink.com 1.10,2013-04-12 02:34:00,
2013-04-11 19:49:00,59.8,53.0,29.77,SW,214,1.0,6.0,79,0.00,,,0.00,weatherlink.com 1.10,2013-04-12 02:49:00,
2013-04-11 20:04:00,59.9,53.0,29.77,SW,224,2.0,6.0,79,0.00,,,0.00,weatherlink.com 1.10,2013-04-12 03:04:00,
2013-04-11 20:19:00,59.9,53.0,29.77,South,188,5.0,7.0,79,0.00,,,0.00,weatherlink.com 1.10,2013-04-12 03:19:00,
2013-04-11 20:34:00,59.9,53.0,29.78,ESE,123,1.0,7.0,78,0.00,,,0.00,weatherlink.com 1.10,2013-04-12 03:34:00,
2013-04-11 20:49:00,60.0,53.0,29.79,SE,145,2.0,8.0,78,0.00,,,0.00,weatherlink.com 1.10,2013-04-12 03:49:00,
2013-04-11 21:04:00,59.8,53.0,29.79,SSE,150,3.0,6.0,77,0.00,,,0.00,weatherlink.com 1.10,2013-04-12 04:04:00,
2013-04-11 21:19:00,59.9,53.0,29.79,ESE,122,4.0,5.0,77,0.00,,,0.00,weatherlink.com 1.10,2013-04-12 04:19:00,
2013-04-11 21:34:00,60.0,53.0,29.79,ESE,116,3.0,3.0,77,0.00,,,0.00,weatherlink.com 1.10,2013-04-12 04:34:00,
2013-04-11 21:49:00,59.8,53.0,29.80,SSE,163,0.0,4.0,77,0.00,,,0.00,weatherlink.com 1.10,2013-04-12 04:49:00,
2013-04-11 22:04:00,59.9,53.0,29.79,South,183,2.0,3.0,77,0.00,,,0.00,weatherlink.com 1.10,2013-04-12 05:04:00,
2013-04-11 22:19:00,59.9,52.0,29.79,SSE,155,1.0,4.0,76,0.00,,,0.00,weatherlink.com 1.10,2013-04-12 05:19:00,
2013-04-11 22:34:00,59.9,52.0,29.80,SSE,157,1.0,5.0,76,0.00,,,0.00,weatherlink.com 1.10,2013-04-12 05:34:00,
2013-04-11 22:49:00,59.9,52.0,29.80,SE,128,2.0,6.0,76,0.00,,,0.00,weatherlink.com 1.10,2013-04-12 05:49:00,
2013-04-11 23:04:00,59.9,52.0,29.80,ESE,115,2.0,3.0,75,0.00,,,0.00,weatherlink.com 1.10,2013-04-12 06:04:00,
2013-04-11 23:19:00,59.9,52.0,29.80,ESE,122,2.0,3.0,75,0.00,,,0.00,weatherlink.com 1.10,2013-04-12 06:19:00,
2013-04-11 23:34:00,60.1,52.0,29.80,SE,127,2.0,4.0,75,0.00,,,0.00,weatherlink.com 1.10,2013-04-12 06:34:00,
2013-04-11 23:49:00,60.1,52.0,29.80,SE,141,1.0,4.0,74,0.00,,,0.00,weatherlink.com 1.10,2013-04-12 06:49:00,